Time,TemperatureF,DewpointF,PressureIn,WindDirection,WindDirectionDegrees,WindSpeedMPH,WindSpeedGustMPH,Humidity,HourlyPrecipIn,Conditions,Clouds,dailyrainin,SoftwareType,DateUTC
2013-03-24 00:09:00,43.6,41.0,30.05,South,175,0.0,-999.0,89,-99.99,,,0.00,weatherlink.com 1.10,2013-03-24 07:09:00,
2013-03-24 00:24:00,43.5,40.0,30.05,South,175,0.0,-999.0,88,-99.99,,,0.00,weatherlink.com 1.10,2013-03-24 07:24:00,
2013-03-24 00:39:00,43.2,40.0,30.05,South,175,0.0,-999.0,88,-99.99,,,0.00,weatherlink.com 1.10,2013-03-24 07:39:00,
2013-03-24 00:54:00,43.0,40.0,30.04,South,175,0.0,-999.0,89,-99.99,,,0.00,weatherlink.com 1.10,2013-03-24 07:54:00,
2013-03-24 01:09:00,42.8,40.0,30.04,South,175,0.0,-999.0,90,-99.99,,,0.00,weatherlink.com 1.10,2013-03-24 08:09:00,
2013-03-24 01:24:00,42.6,40.0,30.05,South,175,0.0,-999.0,90,-99.99,,,0.00,weatherlink.com 1.10,2013-03-24 08:24:00,
2013-03-24 01:39:00,42.3,40.0,30.05,South,175,0.0,-999.0,90,-99.99,,,0.00,weatherlink.com 1.10,2013-03-24 08:39:00,
2013-03-24 01:54:00,42.1,40.0,30.04,South,175,0.0,-999.0,91,-99.99,,,0.00,weatherlink.com 1.10,2013-03-24 08:54:00,
2013-03-24 02:09:00,42.0,40.0,30.04,South,175,0.0,-999.0,91,-99.99,,,0.00,weatherlink.com 1.10,2013-03-24 09:09:00,
2013-03-24 02:24:00,41.8,40.0,30.04,South,175,0.0,-999.0,92,-99.99,,,0.00,weatherlink.com 1.10,2013-03-24 09:24:00,
2013-03-24 02:39:00,41.7,40.0,30.05,South,175,0.0,-999.0,92,-99.99,,,0.00,weatherlink.com 1.10,2013-03-24 09:39:00,
2013-03-24 02:54:00,41.4,39.0,30.04,South,175,0.0,-999.0,92,-99.99,,,0.00,weatherlink.com 1.10,2013-03-24 09:54:00,
2013-03-24 03:09:00,41.2,39.0,30.05,South,175,0.0,-999.0,92,-99.99,,,0.00,weatherlink.com 1.10,2013-03-24 10:09:00,
2013-03-24 03:24:00,41.0,39.0,30.04,South,175,0.0,-999.0,92,-99.99,,,0.00,weatherlink.com 1.10,2013-03-24 10:24:00,
2013-03-24 03:39:00,40.9,39.0,30.04,South,175,0.0,-999.0,93,-99.99,,,0.00,weatherlink.com 1.10,2013-03-24 10:39:00,
2013-03-24 03:54:00,40.9,39.0,30.04,South,175,0.0,-999.0,93,-99.99,,,0.00,weatherlink.com 1.10,2013-03-24 10:54:00,
2013-03-24 04:09:00,40.7,39.0,30.04,South,175,0.0,-999.0,93,-99.99,,,0.00,weatherlink.com 1.10,2013-03-24 11:09:00,
2013-03-24 04:24:00,40.6,39.0,30.04,South,175,0.0,-999.0,93,-99.99,,,0.00,weatherlink.com 1.10,2013-03-24 11:24:00,
2013-03-24 04:39:00,40.5,39.0,30.04,South,175,0.0,-999.0,94,-99.99,,,0.00,weatherlink.com 1.10,2013-03-24 11:39:00,
2013-03-24 04:54:00,40.4,39.0,30.04,South,175,0.0,-999.0,94,-99.99,,,0.00,weatherlink.com 1.10,2013-03-24 11:54:00,
2013-03-24 05:09:00,40.3,39.0,30.04,South,175,0.0,-999.0,94,-99.99,,,0.00,weatherlink.com 1.10,2013-03-24 12:09:00,
2013-03-24 05:24:00,40.2,39.0,30.04,South,175,0.0,-999.0,94,-99.99,,,0.00,weatherlink.com 1.10,2013-03-24 12:24:00,
2013-03-24 05:39:00,40.2,39.0,30.04,South,175,0.0,-999.0,94,-99.99,,,0.00,weatherlink.com 1.10,2013-03-24 12:39:00,
2013-03-24 05:54:00,40.3,39.0,30.04,South,175,0.0,-999.0,94,-99.99,,,0.00,weatherlink.com 1.10,2013-03-24 12:54:00,
2013-03-24 06:09:00,40.2,39.0,30.04,South,175,0.0,-999.0,94,-99.99,,,0.00,weatherlink.com 1.10,2013-03-24 13:09:00,
2013-03-24 06:24:00,40.2,39.0,30.05,South,175,0.0,-999.0,95,-99.99,,,0.00,weatherlink.com 1.10,2013-03-24 13:24:00,
2013-03-24 06:39:00,40.0,39.0,30.05,South,175,0.0,-999.0,94,-99.99,,,0.00,weatherlink.com 1.10,2013-03-24 13:39:00,
2013-03-24 06:54:00,39.8,38.0,30.05,South,175,0.0,-999.0,94,-99.99,,,0.00,weatherlink.com 1.10,2013-03-24 13:54:00,
2013-03-24 07:09:00,39.6,38.0,30.05,South,175,0.0,-999.0,95,-99.99,,,0.00,weatherlink.com 1.10,2013-03-24 14:09:00,
2013-03-24 07:24:00,39.8,39.0,30.05,South,175,0.0,-999.0,95,-99.99,,,0.00,weatherlink.com 1.10,2013-03-24 14:24:00,
2013-03-24 07:39:00,40.0,39.0,30.05,South,175,0.0,-999.0,95,-99.99,,,0.00,weatherlink.com 1.10,2013-03-24 14:39:00,
2013-03-24 07:54:00,40.2,39.0,30.05,South,175,0.0,-999.0,95,-99.99,,,0.00,weatherlink.com 1.10,2013-03-24 14:54:00,
2013-03-24 08:09:00,40.7,40.0,30.06,South,175,0.0,-999.0,96,-99.99,,,0.00,weatherlink.com 1.10,2013-03-24 15:09:00,
2013-03-24 08:24:00,41.9,41.0,30.06,South,175,0.0,-999.0,96,-99.99,,,0.00,weatherlink.com 1.10,2013-03-24 15:24:00,
2013-03-24 08:40:00,43.5,43.0,30.05,South,175,0.0,-999.0,97,-99.99,,,0.00,weatherlink.com 1.10,2013-03-24 15:40:00,
2013-03-24 08:55:00,45.1,44.0,30.06,South,175,0.0,-999.0,97,-99.99,,,0.00,weatherlink.com 1.10,2013-03-24 15:55:00,
2013-03-24 09:10:00,47.7,47.0,30.06,South,175,0.0,-999.0,96,-99.99,,,0.00,weatherlink.com 1.10,2013-03-24 16:10:00,
2013-03-24 09:25:00,52.3,49.0,30.06,South,175,0.0,-999.0,89,-99.99,,,0.00,weatherlink.com 1.10,2013-03-24 16:25:00,
2013-03-24 09:40:00,56.3,49.0,30.07,South,173,0.0,-999.0,77,-99.99,,,0.00,weatherlink.com 1.10,2013-03-24 16:40:00,
2013-03-24 09:55:00,59.3,51.0,30.07,South,173,0.0,-999.0,73,-99.99,,,0.00,weatherlink.com 1.10,2013-03-24 16:55:00,
2013-03-24 10:10:00,61.9,50.0,30.07,SE,142,0.0,-999.0,66,-99.99,,,0.00,weatherlink.com 1.10,2013-03-24 17:10:00,
2013-03-24 10:25:00,63.2,51.0,30.06,ESE,122,0.0,-999.0,65,-99.99,,,0.00,weatherlink.com 1.10,2013-03-24 17:25:00,
2013-03-24 10:40:00,64.4,52.0,30.06,South,184,0.0,-999.0,64,-99.99,,,0.00,weatherlink.com 1.10,2013-03-24 17:40:00,
2013-03-24 10:55:00,65.7,51.0,30.05,SE,145,1.0,-999.0,60,-99.99,,,0.00,weatherlink.com 1.10,2013-03-24 17:55:00,
2013-03-24 11:10:00,67.4,52.0,30.05,South,176,0.0,-999.0,58,-99.99,,,0.00,weatherlink.com 1.10,2013-03-24 18:10:00,
2013-03-24 11:25:00,68.5,50.0,30.05,South,187,0.0,-999.0,52,-99.99,,,0.00,weatherlink.com 1.10,2013-03-24 18:25:00,
2013-03-24 11:40:00,69.3,52.0,30.04,SE,134,2.0,-999.0,54,-99.99,,,0.00,weatherlink.com 1.10,2013-03-24 18:40:00,
2013-03-24 11:55:00,69.0,52.0,30.05,South,178,0.0,-999.0,55,-99.99,,,0.00,weatherlink.com 1.10,2013-03-24 18:55:00,
2013-03-24 12:10:00,69.1,52.0,30.04,East,96,3.0,-999.0,55,-99.99,,,0.00,weatherlink.com 1.10,2013-03-24 19:10:00,
2013-03-24 12:25:00,69.4,51.0,30.05,SSE,160,0.0,-999.0,52,-99.99,,,0.00,weatherlink.com 1.10,2013-03-24 19:25:00,
2013-03-24 12:40:00,70.0,50.0,30.05,SSW,196,2.0,-999.0,50,-99.99,,,0.00,weatherlink.com 1.10,2013-03-24 19:40:00,
2013-03-24 12:55:00,70.4,50.0,30.04,ESE,117,0.0,-999.0,48,-99.99,,,0.00,weatherlink.com 1.10,2013-03-24 19:55:00,
2013-03-24 13:10:00,70.4,49.0,30.03,SSE,163,0.0,-999.0,47,-99.99,,,0.00,weatherlink.com 1.10,2013-03-24 20:10:00,
2013-03-24 13:25:00,71.2,49.0,30.03,SW,225,4.0,-999.0,45,-99.99,,,0.00,weatherlink.com 1.10,2013-03-24 20:25:00,
2013-03-24 13:40:00,71.5,48.0,30.02,South,182,1.0,-999.0,44,-99.99,,,0.00,weatherlink.com 1.10,2013-03-24 20:40:00,
2013-03-24 13:56:00,71.6,48.0,30.02,NNW,331,0.0,-999.0,43,-99.99,,,0.00,weatherlink.com 1.10,2013-03-24 20:56:00,
2013-03-24 14:11:00,71.5,49.0,30.01,SSE,158,0.0,-999.0,45,-99.99,,,0.00,weatherlink.com 1.10,2013-03-24 21:11:00,
2013-03-24 14:26:00,72.1,50.0,30.01,ESE,105,0.0,-999.0,46,-99.99,,,0.00,weatherlink.com 1.10,2013-03-24 21:26:00,
2013-03-24 14:41:00,72.6,50.0,30.00,SE,144,2.0,-999.0,45,-99.99,,,0.00,weatherlink.com 1.10,2013-03-24 21:41:00,
2013-03-24 14:56:00,72.1,48.0,30.00,SW,235,1.0,-999.0,43,-99.99,,,0.00,weatherlink.com 1.10,2013-03-24 21:56:00,
2013-03-24 15:11:00,71.7,50.0,29.99,SSE,157,2.0,-999.0,46,-99.99,,,0.00,weatherlink.com 1.10,2013-03-24 22:11:00,
2013-03-24 15:56:00,71.0,50.0,29.98,SSE,148,0.0,-999.0,47,-99.99,,,0.00,weatherlink.com 1.10,2013-03-24 22:56:00,
2013-03-24 16:11:00,71.6,49.0,29.97,SW,217,0.0,-999.0,45,-99.99,,,0.00,weatherlink.com 1.10,2013-03-24 23:11:00,
2013-03-24 16:26:00,71.0,46.0,29.97,SSW,210,3.0,-999.0,41,-99.99,,,0.00,weatherlink.com 1.10,2013-03-24 23:26:00,
2013-03-24 16:41:00,69.2,47.0,29.96,North,5,0.0,-999.0,46,-99.99,,,0.00,weatherlink.com 1.10,2013-03-24 23:41:00,
2013-03-24 16:56:00,68.4,46.0,29.96,ENE,72,3.0,-999.0,45,-99.99,,,0.00,weatherlink.com 1.10,2013-03-24 23:56:00,
2013-03-24 17:11:00,70.1,45.0,29.95,South,179,1.0,-999.0,40,-99.99,,,0.00,weatherlink.com 1.10,2013-03-25 00:11:00,
2013-03-24 17:26:00,70.8,47.0,29.95,SSE,157,3.0,-999.0,43,-99.99,,,0.00,weatherlink.com 1.10,2013-03-25 00:26:00,
2013-03-24 17:41:00,68.8,48.0,29.94,SE,140,0.0,-999.0,48,-99.99,,,0.00,weatherlink.com 1.10,2013-03-25 00:41:00,
2013-03-24 18:41:00,61.8,49.0,29.94,SE,143,0.0,-999.0,63,-99.99,,,0.00,weatherlink.com 1.10,2013-03-25 01:41:00,
2013-03-24 18:56:00,60.4,50.0,29.94,SE,143,0.0,-999.0,68,-99.99,,,0.00,weatherlink.com 1.10,2013-03-25 01:56:00,
2013-03-24 19:11:00,59.0,50.0,29.94,SE,143,0.0,-999.0,71,-99.99,,,0.00,weatherlink.com 1.10,2013-03-25 02:11:00,
2013-03-24 19:26:00,57.5,50.0,29.95,SE,143,0.0,-999.0,75,-99.99,,,0.00,weatherlink.com 1.10,2013-03-25 02:26:00,
2013-03-24 19:41:00,56.2,49.0,29.95,SE,143,0.0,-999.0,77,-99.99,,,0.00,weatherlink.com 1.10,2013-03-25 02:41:00,
2013-03-24 19:56:00,54.9,49.0,29.95,SE,143,0.0,-999.0,80,-99.99,,,0.00,weatherlink.com 1.10,2013-03-25 02:56:00,
2013-03-24 20:11:00,53.6,48.0,29.95,SE,143,0.0,-999.0,82,-99.99,,,0.00,weatherlink.com 1.10,2013-03-25 03:11:00,
2013-03-24 20:41:00,51.4,47.0,29.95,SE,143,0.0,-999.0,85,-99.99,,,0.00,weatherlink.com 1.10,2013-03-25 03:41:00,
2013-03-24 20:56:00,50.6,47.0,29.96,SE,143,0.0,-999.0,87,-99.99,,,0.00,weatherlink.com 1.10,2013-03-25 03:56:00,
2013-03-24 21:11:00,49.8,46.0,29.96,SE,143,0.0,-999.0,87,-99.99,,,0.00,weatherlink.com 1.10,2013-03-25 04:11:00,
2013-03-24 21:26:00,49.2,46.0,29.96,SE,143,0.0,-999.0,88,-99.99,,,0.00,weatherlink.com 1.10,2013-03-25 04:26:00,
2013-03-24 21:41:00,48.7,46.0,29.97,SE,143,0.0,-999.0,89,-99.99,,,0.00,weatherlink.com 1.10,2013-03-25 04:41:00,
2013-03-24 21:56:00,48.1,45.0,29.97,SE,143,0.0,-999.0,89,-99.99,,,0.00,weatherlink.com 1.10,2013-03-25 04:56:00,
2013-03-24 22:11:00,47.6,45.0,29.97,SE,143,0.0,-999.0,90,-99.99,,,0.00,weatherlink.com 1.10,2013-03-25 05:11:00,
2013-03-24 22:26:00,47.3,45.0,29.97,SE,143,0.0,-999.0,91,-99.99,,,0.00,weatherlink.com 1.10,2013-03-25 05:26:00,
2013-03-24 22:41:00,47.0,45.0,29.98,SE,143,0.0,-999.0,92,-99.99,,,0.00,weatherlink.com 1.10,2013-03-25 05:41:00,
2013-03-24 22:56:00,46.7,45.0,29.97,SE,143,0.0,-999.0,92,-99.99,,,0.00,weatherlink.com 1.10,2013-03-25 05:56:00,
2013-03-24 23:11:00,46.4,44.0,29.98,SE,143,0.0,-999.0,92,-99.99,,,0.00,weatherlink.com 1.10,2013-03-25 06:11:00,
2013-03-24 23:26:00,46.1,44.0,29.98,SE,143,0.0,-999.0,92,-99.99,,,0.00,weatherlink.com 1.10,2013-03-25 06:26:00,
2013-03-24 23:41:00,45.7,44.0,29.97,SE,143,0.0,-999.0,92,-99.99,,,0.00,weatherlink.com 1.10,2013-03-25 06:41:00,
2013-03-24 23:56:00,45.5,44.0,29.97,SE,143,0.0,-999.0,93,-99.99,,,0.00,weatherlink.com 1.10,2013-03-25 06:56:00,